• Join FlightAware (Why Join?)
  • Login
  • US Flag 
10:16PM EDT


 

Airport Tracker/Info


-or-


 

Live Flight TrackerFlight Track Log ✈ UAL5822 ✈ 24-Apr-2013 ✈ KMHT - KORD

Flight Track Log - Related Links

Times and Time Zones

All times are in EDT time to prevent confusion due to time zone crossing. See the UAL5822 flight status page for this flight to view local times or setup timezone preferences in your user account.

Time Position Orientation Groundspeed Altitude Reporting Facility
EDT Latitude Longitude Course Direction KTS MPH feet Rate Location/Type
06:49AM 42.9500 -71.4167 16° North 159 183 1,100  Level KA90
06:50AM 43.0061 -71.3953 16° North 186 214 3,900 2,520 Climbing Boston Center
06:51AM 43.0608 -71.4342 333° Northwest 198 228 6,500 2,580 Climbing Boston Center
06:52AM 43.0928 -71.5217 297° West 253 291 9,100 2,100 Climbing Boston Center
06:53AM 43.0978 -71.6297 274° West 267 307 10,700 1,080 Climbing Boston Center
06:54AM 43.1008 -71.7661 272° West 340 391 11,300 1,200 Climbing Boston Center
06:55AM 43.1056 -71.9111 273° West 377 434 13,100 1,860 Climbing Boston Center
06:56AM 43.1106 -72.0561 273° West 383 441 15,100 1,980 Climbing Boston Center
06:57AM 43.1150 -72.1956 273° West 378 435 17,100 1,500 Climbing Boston Center
06:58AM 43.1194 -72.3206 273° West 373 429 18,200 1,200 Climbing Boston Center
06:59AM 43.1297 -72.4628 276° West 373 429 19,500 1,320 Climbing Boston Center
07:00AM 43.1317 -72.6108 271° West 378 435 20,900 1,380 Climbing Boston Center
07:01AM 43.1294 -72.7617 269° West 385 443 22,300 1,380 Climbing Boston Center
07:02AM 43.1308 -72.9236 271° West 385 443 23,700 1,380 Climbing Boston Center
07:03AM 43.1386 -73.0717 274° West 391 450 25,100 1,320 Climbing Boston Center
07:04AM 43.1417 -73.2197 272° West 391 450 26,400 1,140 Climbing Boston Center
07:05AM 43.1431 -73.3336 271° West 391 450 27,400 1,200 Climbing Boston Center
07:06AM 43.1436 -73.5014 270° West 381 438 28,900 1,440 Climbing Boston Center
07:07AM 43.1464 -73.6408 272° West 375 432 30,300 1,200 Climbing Boston Center
07:08AM 43.1472 -73.7661 271° West 368 423 31,400 1,200 Climbing Boston Center
07:09AM 43.1497 -73.9028 271° West 363 418 32,800 1,260 Climbing Boston Center
07:10AM 43.1519 -74.0367 271° West 363 418 34,000 1,200 Climbing Boston Center
07:11AM 43.1542 -74.1706 271° West 363 418 35,300 960 Climbing Boston Center
07:12AM 43.1542 -74.3014 270° West 363 418 36,000 300 Climbing Boston Center
07:13AM 43.1581 -74.4411 272° West 363 418 36,000  Level Boston Center
07:14AM 43.1594 -74.5919 271° West 380 437 36,000  Level Boston Center
07:15AM 43.1608 -74.7428 271° West 392 451 36,000  Level Boston Center
07:16AM 43.1597 -74.8967 269° West 402 463 36,000  Level Boston Center
07:17AM 43.1606 -75.0503 270° West 402 463 36,000  Level Boston Center
07:18AM 43.1606 -75.2211 270° West 402 463 36,000 -60 Level Boston Center
07:19AM 43.1608 -75.3750 270° West 402 463 35,900  Descending Boston Center
07:21AM 43.1500 -75.5833 266° West 400 460 36,000  Climbing Toronto Center
07:22AM 43.1500 -75.7333 270° West 400 460 36,000  Level Toronto Center
07:23AM 43.1611 -75.8864 276° West 402 463 36,000 -60 Level Cleveland Center
07:24AM 43.1608 -76.0344 270° West 402 463 35,900  Descending Cleveland Center
07:25AM 43.1603 -76.1825 270° West 402 463 36,000  Climbing Cleveland Center
07:26AM 43.1614 -76.3247 271° West 396 456 36,000  Level Cleveland Center
07:27AM 43.1603 -76.4703 269° West 391 450 36,000  Level Cleveland Center
07:28AM 43.1614 -76.6153 271° West 385 443 36,000  Level Cleveland Center
07:29AM 43.1594 -76.7464 269° West 385 443 36,000  Level Cleveland Center
07:30AM 43.1597 -76.8858 270° West 385 443 36,000  Level Cleveland Center
07:31AM 43.1581 -77.0283 269° West 385 443 36,000  Level Cleveland Center
07:32AM 43.1561 -77.1708 269° West 385 443 36,000  Level Cleveland Center
07:33AM 43.1558 -77.3075 270° West 380 437 36,000  Level Cleveland Center
07:34AM 43.1556 -77.4497 270° West 374 430 36,000  Level Cleveland Center
07:35AM 43.1531 -77.5864 269° West 374 430 36,000  Level Cleveland Center
07:36AM 43.1522 -77.7261 270° West 374 430 36,000  Level Cleveland Center
07:37AM 43.1494 -77.8686 269° West 374 430 36,000  Level Cleveland Center
07:38AM 43.1486 -78.0108 270° West 374 430 36,000  Level Cleveland Center
07:39AM 43.1453 -78.1533 268° West 374 430 36,000  Level Cleveland Center
07:40AM 43.1444 -78.3097 270° West 380 437 36,000  Level Cleveland Center
07:41AM 43.1408 -78.4522 268° West 380 437 36,000  Level Cleveland Center
07:42AM 43.1372 -78.5917 268° West 380 437 36,000  Level Cleveland Center
07:43AM 43.1331 -78.7314 268° West 380 437 36,000  Level Cleveland Center
07:44AM 43.1292 -78.8764 268° West 380 437 36,000  Level Cleveland Center
07:45AM 43.1250 -79.0217 268° West 385 443 36,000  Level Cleveland Center
07:46AM 43.1183 -79.1639 266° West 385 443 36,000  Level Cleveland Center
07:47AM 43.1161 -79.3119 269° West 385 443 36,000  Level Cleveland Center
07:48AM 43.1000 -79.4667 262° West 390 449 36,000  Level Toronto Center
07:49AM 43.1000 -79.6167 270° West 380 437 36,000  Level Toronto Center
07:50AM 43.0833 -79.7667 261° West 380 437 36,000  Level Toronto Center
07:51AM 43.0833 -79.9000 270° West 370 426 36,000  Level Toronto Center
07:52AM 43.0833 -80.0500 270° West 370 426 36,000  Level Toronto Center
07:53AM 43.0667 -80.1833 260° West 370 426 36,000  Level Toronto Center
07:54AM 43.0667 -80.3167 270° West 370 426 36,000  Level Toronto Center
07:55AM 43.0667 -80.4833 270° West 370 426 36,000  Level Toronto Center
07:56AM 43.0500 -80.6167 260° West 370 426 36,000  Level Toronto Center
07:57AM 43.0500 -80.7500 270° West 370 426 36,000  Level Toronto Center
07:58AM 43.0333 -80.8833 260° West 370 426 36,000  Level Toronto Center
07:59AM 43.0167 -81.0167 260° West 370 426 36,000  Level Toronto Center
08:00AM 43.0167 -81.1667 270° West 370 426 36,000  Level Toronto Center
08:01AM 43.0167 -81.3000 270° West 360 414 36,000  Level Toronto Center
08:02AM 43.0167 -81.4333 270° West 360 414 36,000  Level Toronto Center
08:03AM 43.0167 -81.5667 270° West 360 414 36,000  Level Toronto Center
08:04AM 43.0167 -81.7000 270° West 350 403 36,000  Level Toronto Center
08:05AM 43.0167 -81.8500 270° West 350 403 36,000  Level Toronto Center
08:06AM 43.0000 -81.9833 260° West 350 403 36,000  Level Toronto Center
08:07AM 43.0000 -82.1167 270° West 350 403 36,000  Level Toronto Center
08:08AM 43.0000 -82.2333 270° West 340 391 36,000  Level Toronto Center
08:09AM 43.0000 -82.3667 270° West 340 391 36,000  Level Toronto Center
08:10AM 43.0000 -82.5000 270° West 340 391 36,000  Level Toronto Center
08:11AM 43.0000 -82.6167 270° West 340 391 36,000  Level Toronto Center
08:12AM 42.9833 -82.7500 260° West 340 391 36,000  Level Toronto Center
08:13AM 42.9833 -82.9000 270° West 340 391 36,000 -480 Level Toronto Center
08:14AM 42.9833 -83.0333 270° West 350 403 35,100 -960 Descending Toronto Center
08:15AM 42.9833 -83.1500 270° West 350 403 34,100 -1,020 Descending Toronto Center
08:16AM 42.9667 -83.3000 261° West 360 414 33,100 -1,020 Descending Toronto Center
08:17AM 42.9667 -83.4167 270° West 360 414 32,100 -1,020 Descending Toronto Center
08:18AM 42.9667 -83.5500 270° West 360 414 31,100 -1,020 Descending Toronto Center
08:19AM 42.9667 -83.6833 270° West 360 414 30,100 -600 Descending Toronto Center
08:20AM 42.9333 -83.8167 251° West 370 426 30,000 -60 Descending Toronto Center
08:21AM 42.9378 -84.0456 272° West 366 421 30,000  Level Chicago Center
08:22AM 42.9167 -84.1000 242° Southwest 360 414 30,000  Level Toronto Center
08:22AM 42.9244 -84.1808 278° West 362 417 30,000  Level Chicago Center
08:23AM 42.9117 -84.2772 260° West 370 426 30,000  Level Cleveland Center
08:24AM 42.8947 -84.4772 263° West 360 414 30,000  Level Chicago Center
08:26AM 42.8817 -84.6100 262° West 355 409 30,000  Level Chicago Center
08:27AM 42.8675 -84.7439 262° West 357 411 30,000  Level Chicago Center
08:28AM 42.8542 -84.8786 262° West 358 412 30,000  Level Chicago Center
08:29AM 42.8392 -85.0114 261° West 356 410 30,000 -300 Level Chicago Center
08:30AM 42.8228 -85.1681 262° West 349 402 29,400 -1,260 Descending Chicago Center
08:31AM 42.8086 -85.3014 262° West 353 406 27,500 -1,920 Descending Chicago Center
08:32AM 42.7939 -85.4319 261° West 351 404 25,500 -1,860 Descending Chicago Center
08:33AM 42.7756 -85.5592 259° West 344 396 23,700 -1,800 Descending Chicago Center
08:34AM 42.7533 -85.6819 256° West 336 387 21,900 -1,740 Descending Chicago Center
08:35AM 42.7308 -85.8069 256° West 337 388 20,200 -960 Descending Chicago Center
08:36AM 42.7078 -85.9344 256° West 343 395 20,000 -120 Descending Chicago Center
08:37AM 42.6856 -86.0578 256° West 339 390 20,000  Level Chicago Center
08:38AM 42.6589 -86.1972 255° West 321 369 20,000  Level Chicago Center
08:39AM 42.6369 -86.3167 256° West 323 372 20,000 -420 Level Chicago Center
08:40AM 42.6147 -86.4347 256° West 322 371 19,200 -1,140 Descending Chicago Center
08:41AM 42.5917 -86.5550 255° West 329 379 17,700 -1,680 Descending Chicago Center
08:42AM 42.5697 -86.6744 256° West 327 376 15,800 -1,980 Descending Chicago Center
08:43AM 42.5450 -86.7925 254° West 327 376 13,700 -2,040 Descending Chicago Center
08:44AM 42.5128 -86.9053 249° West 323 372 11,700 -1,860 Descending Chicago Center
08:45AM 42.4731 -87.0436 249° West 329 379 9,900 -1,080 Descending Chicago Center
08:46AM 42.4453 -87.1464 250° West 295 339 9,500 -660 Descending Chicago Center
08:47AM 42.4203 -87.2389 250° West 265 305 8,600 -1,200 Descending Chicago Center
08:48AM 42.3939 -87.3347 250° West 267 307 7,100 -1,560 Descending Chicago Center
08:49AM 42.3375 -87.4047 223° Southwest 267 307 5,400 -1,020 Descending Chicago Center
08:50AM 42.2719 -87.4258 193° South 277 319 5,000 -300 Descending Chicago Center
08:51AM 42.1828 -87.4294 182° South 275 316 4,900 -540 Descending Chicago Center
08:52AM 42.1056 -87.4200 175° South 278 320 4,000 -480 Descending Chicago Center
08:53AM 42.0667 -87.4167 176° South 248 285 4,100  Climbing Chicago TRACON
08:54AM 42.0000 -87.4667 209° Southwest 230 265 4,100 -60 Level Chicago TRACON
08:55AM 41.9833 -87.5500 255° West 212 244 4,000 -60 Descending Chicago TRACON
08:56AM 41.9833 -87.6167 270° West 176 203 4,000 -60 Level Chicago TRACON
08:57AM 41.9833 -87.6833 270° West 182 209 3,900 -540 Descending Chicago TRACON
08:58AM 41.9833 -87.7500 270° West 197 227 3,000 -1,140 Descending Chicago TRACON
08:59AM 41.9833 -87.8167 270° West 168 193 1,900 -960 Descending Chicago TRACON
09:00AM 41.9833 -87.8667 270° West 133 153 1,100 -780 Descending Chicago TRACON